createdAt,value
2019-03-10T00:02:21.494Z,97.30
2019-03-10T00:04:55.049Z,97.40
2019-03-10T00:07:28.782Z,97.40
2019-03-10T00:10:02.433Z,97.30
2019-03-10T00:12:36.963Z,97.60
2019-03-10T00:15:12.370Z,97.50
2019-03-10T00:17:45.861Z,97.60
2019-03-10T00:20:19.100Z,97.70
2019-03-10T00:22:53.553Z,96.90
2019-03-10T00:25:27.049Z,97.90
2019-03-10T00:28:00.857Z,97.60
2019-03-10T00:30:34.246Z,97.20
2019-03-10T00:33:08.261Z,97.70
2019-03-10T00:35:41.490Z,97.30
2019-03-10T00:38:15.114Z,97.30
2019-03-10T00:41:02.409Z,96.40
2019-03-10T00:43:53.982Z,97.40
2019-03-10T00:46:42.136Z,96.70
2019-03-10T00:49:53.757Z,97.90
2019-03-10T00:52:39.952Z,97.10
2019-03-10T00:55:15.731Z,97.50
2019-03-10T00:57:50.615Z,98.10
2019-03-10T01:00:24.266Z,97.90
2019-03-10T01:02:58.650Z,97.40
2019-03-10T01:05:32.876Z,96.90
2019-03-10T01:08:06.458Z,97.20
2019-03-10T01:10:40.630Z,97.30
2019-03-10T01:13:14.086Z,97.00
2019-03-10T01:15:47.859Z,96.30
2019-03-10T01:18:21.807Z,97.60
2019-03-10T01:20:58.557Z,96.90
2019-03-10T01:23:32.483Z,96.10
2019-03-10T01:26:06.312Z,97.40
2019-03-10T01:28:40.081Z,97.60
2019-03-10T01:31:39.030Z,97.10
2019-03-10T01:34:32.102Z,96.50
2019-03-10T01:37:09.048Z,97.50
2019-03-10T01:39:44.439Z,97.40
2019-03-10T01:42:21.837Z,97.00
2019-03-10T01:44:55.097Z,96.30
2019-03-10T01:47:33.353Z,97.20
2019-03-10T01:50:09.105Z,96.80
2019-03-10T01:52:42.954Z,97.40
2019-03-10T01:55:16.872Z,97.20
2019-03-10T01:57:51.677Z,95.60
2019-03-10T02:00:27.304Z,97.30
2019-03-10T02:03:08.573Z,97.40
2019-03-10T02:05:44.852Z,96.20
2019-03-10T02:08:24.485Z,94.80
2019-03-10T02:10:57.882Z,93.60
2019-03-10T02:13:31.179Z,94.30
2019-03-10T02:16:04.850Z,95.80
2019-03-10T02:18:39.023Z,95.80
2019-03-10T02:21:12.753Z,91.70
2019-03-10T02:23:46.078Z,95.50
2019-03-10T02:26:19.807Z,95.60
2019-03-10T02:28:53.783Z,94.20
2019-03-10T02:31:27.664Z,95.00
2019-03-10T02:34:01.342Z,95.20
2019-03-10T02:36:35.665Z,95.50
2019-03-10T02:39:09.494Z,95.50
2019-03-10T02:41:43.465Z,95.70
2019-03-10T02:44:16.952Z,96.20
2019-03-10T02:46:50.551Z,96.10
2019-03-10T02:49:25.374Z,95.90
2019-03-10T02:51:59.180Z,94.70
2019-03-10T02:54:32.650Z,94.80
2019-03-10T02:57:08.203Z,94.50
2019-03-10T02:59:42.124Z,89.00
2019-03-10T03:02:16.805Z,94.70
2019-03-10T03:04:50.041Z,94.80
2019-03-10T03:07:24.235Z,94.80
2019-03-10T03:09:57.764Z,94.30
2019-03-10T03:12:35.140Z,94.30
2019-03-10T03:15:09.944Z,94.30
2019-03-10T03:17:43.521Z,93.80
2019-03-10T03:20:16.926Z,93.90
2019-03-10T03:22:50.792Z,92.90
2019-03-10T03:25:24.188Z,92.20
2019-03-10T03:27:57.981Z,92.70
2019-03-10T03:30:50.990Z,93.00
2019-03-10T03:33:27.541Z,92.30
2019-03-10T03:36:05.800Z,91.90
2019-03-10T03:38:45.213Z,91.40
2019-03-10T03:44:17.025Z,93.40
2019-03-10T03:46:53.571Z,87.10
2019-03-10T03:49:32.548Z,92.20
2019-03-10T03:52:06.650Z,91.40
2019-03-10T03:54:40.381Z,93.00
2019-03-10T03:57:14.499Z,92.10
2019-03-10T03:59:48.408Z,92.30
2019-03-10T04:02:30.815Z,92.70
2019-03-10T04:04:58.099Z,93.30
2019-03-10T04:07:31.662Z,92.50
2019-03-10T04:10:06.139Z,90.60
2019-03-10T04:12:39.622Z,92.70
2019-03-10T04:15:15.863Z,90.60
2019-03-10T04:17:49.216Z,91.50
2019-03-10T04:20:23.348Z,92.20
2019-03-10T04:22:56.612Z,92.10
2019-03-10T04:25:31.268Z,92.00
2019-03-10T04:28:07.780Z,91.30
2019-03-10T04:30:41.950Z,92.00
2019-03-10T04:33:15.794Z,91.40
2019-03-10T04:35:50.486Z,91.80
2019-03-10T04:38:24.000Z,90.70
2019-03-10T04:40:58.106Z,89.20
2019-03-10T04:43:31.803Z,87.90
2019-03-10T04:46:07.722Z,92.50
2019-03-10T04:48:41.655Z,90.50
2019-03-10T04:51:15.725Z,83.40
2019-03-10T04:53:51.448Z,86.10
2019-03-10T04:56:35.345Z,90.00
2019-03-10T04:59:11.418Z,91.60
2019-03-10T05:01:45.264Z,88.10
2019-03-10T05:04:19.762Z,90.40
2019-03-10T05:06:57.514Z,90.40
2019-03-10T05:09:29.790Z,91.30
2019-03-10T05:12:04.512Z,86.10
2019-03-10T05:14:44.893Z,86.20
2019-03-10T05:17:18.133Z,89.70
2019-03-10T05:19:51.872Z,86.00
2019-03-10T05:22:25.140Z,78.60
2019-03-10T05:24:59.127Z,87.80
2019-03-10T05:27:32.460Z,90.00
2019-03-10T05:30:06.098Z,90.60
2019-03-10T05:32:39.527Z,84.20
2019-03-10T05:35:13.563Z,90.90
2019-03-10T05:37:46.837Z,77.60
2019-03-10T05:40:20.944Z,85.80
2019-03-10T05:42:54.686Z,87.00
2019-03-10T05:45:28.421Z,89.80
2019-03-10T05:48:01.795Z,90.30
2019-03-10T05:50:35.600Z,90.80
2019-03-10T05:53:09.320Z,88.50
2019-03-10T05:55:43.117Z,89.90
2019-03-10T05:58:16.683Z,88.00
2019-03-10T06:00:50.616Z,89.10
2019-03-10T06:03:24.142Z,86.90
2019-03-10T06:06:04.598Z,90.20
2019-03-10T06:08:33.029Z,77.40
2019-03-10T06:11:07.419Z,90.50
2019-03-10T06:13:40.613Z,80.70
2019-03-10T06:16:14.038Z,86.70
2019-03-10T06:18:47.449Z,83.80
2019-03-10T06:21:21.235Z,88.70
2019-03-10T06:23:54.949Z,85.20
2019-03-10T06:26:28.832Z,86.50
2019-03-10T06:29:02.453Z,81.10
2019-03-10T06:31:35.917Z,88.80
2019-03-10T06:34:09.266Z,86.10
2019-03-10T06:36:43.489Z,87.20
2019-03-10T06:39:16.784Z,85.60
2019-03-10T06:41:50.659Z,84.50
2019-03-10T06:44:24.691Z,84.30
2019-03-10T06:47:15.056Z,89.10
2019-03-10T06:49:36.990Z,88.20
2019-03-10T06:52:12.254Z,90.20
2019-03-10T06:54:47.343Z,89.80
2019-03-10T06:57:21.420Z,90.00
2019-03-10T06:59:54.831Z,88.40
2019-03-10T07:05:28.017Z,86.80
2019-03-10T07:08:03.449Z,82.90
2019-03-10T07:10:37.477Z,86.60
2019-03-10T07:13:11.500Z,87.90
2019-03-10T07:15:44.872Z,87.70
2019-03-10T07:18:18.568Z,80.30
2019-03-10T07:20:58.008Z,73.90
2019-03-10T07:23:33.551Z,78.30
2019-03-10T07:26:09.434Z,84.20
2019-03-10T07:28:47.049Z,84.00
2019-03-10T07:31:26.677Z,86.30
2019-03-10T07:34:16.360Z,80.50
2019-03-10T07:36:57.611Z,78.40
2019-03-10T07:39:50.649Z,86.80
2019-03-10T07:42:29.392Z,85.50
2019-03-10T07:45:05.467Z,75.70
2019-03-10T07:47:54.560Z,73.10
2019-03-10T07:50:32.176Z,86.50
2019-03-10T07:53:18.784Z,83.40
2019-03-10T07:55:53.438Z,84.20
2019-03-10T07:58:33.941Z,78.30
2019-03-10T08:01:16.311Z,85.60
2019-03-10T08:03:50.985Z,72.60
2019-03-10T08:06:29.348Z,85.40
2019-03-10T08:09:10.120Z,84.40
2019-03-10T08:11:46.375Z,83.80
2019-03-10T08:14:21.775Z,77.80
2019-03-10T08:17:17.294Z,84.70
2019-03-10T08:20:19.877Z,85.00
2019-03-10T08:22:56.135Z,83.60
2019-03-10T08:25:46.606Z,71.60
2019-03-10T08:28:33.696Z,81.20
2019-03-10T08:31:17.220Z,85.20
2019-03-10T08:34:03.714Z,82.00
2019-03-10T08:36:44.238Z,85.20
2019-03-10T08:39:33.428Z,87.30
2019-03-10T08:42:20.905Z,87.30
2019-03-10T08:45:02.952Z,83.00
2019-03-10T08:47:46.931Z,84.10
2019-03-10T08:50:37.223Z,84.10
2019-03-10T08:53:18.741Z,85.50
2019-03-10T08:55:55.109Z,85.50
2019-03-10T08:58:54.772Z,75.00
2019-03-10T09:01:54.469Z,72.30
2019-03-10T09:04:56.757Z,82.80
2019-03-10T09:07:40.617Z,86.20
2019-03-10T09:10:18.977Z,85.40
2019-03-10T09:13:14.726Z,87.70
2019-03-10T09:16:07.702Z,86.30
2019-03-10T09:18:42.384Z,88.30
2019-03-10T09:21:22.671Z,88.50
2019-03-10T09:23:57.348Z,87.90
2019-03-10T09:26:37.684Z,87.70
2019-03-10T09:29:28.635Z,84.80
2019-03-10T09:32:10.995Z,88.20
2019-03-10T09:34:47.972Z,87.20
2019-03-10T09:37:22.368Z,86.40
2019-03-10T09:39:57.272Z,86.30
2019-03-10T09:42:48.124Z,88.10
2019-03-10T09:45:34.988Z,85.70
2019-03-10T09:48:15.232Z,85.20
2019-03-10T09:50:59.382Z,85.80
2019-03-10T09:53:41.265Z,81.00
2019-03-10T09:56:16.310Z,87.80
2019-03-10T09:58:50.842Z,88.00
2019-03-10T10:01:25.329Z,88.60
2019-03-10T10:04:05.749Z,88.80
2019-03-10T10:06:41.351Z,88.60
2019-03-10T10:09:24.987Z,86.50
2019-03-10T10:12:12.689Z,89.20
2019-03-10T10:14:44.022Z,81.50
2019-03-10T10:17:25.169Z,90.20
2019-03-10T10:19:59.708Z,84.30
2019-03-10T10:22:41.110Z,89.90
2019-03-10T10:25:16.115Z,90.00
2019-03-10T10:28:12.441Z,85.30
2019-03-10T10:30:56.604Z,86.40
2019-03-10T10:33:37.160Z,90.50
2019-03-10T10:36:20.486Z,86.10
2019-03-10T10:38:58.656Z,84.60
2019-03-10T10:41:36.111Z,90.00
2019-03-10T10:44:13.839Z,90.70
2019-03-10T10:46:53.917Z,90.50
2019-03-10T10:49:44.670Z,90.90
2019-03-10T10:52:35.337Z,90.60
2019-03-10T10:55:12.278Z,88.00
2019-03-10T10:57:47.583Z,88.40
2019-03-10T11:00:38.627Z,90.90
2019-03-10T11:03:20.533Z,84.20
2019-03-10T11:06:07.668Z,81.00
2019-03-10T11:08:48.192Z,83.10
2019-03-10T11:11:25.541Z,89.30
2019-03-10T11:14:15.778Z,89.10
2019-03-10T11:16:56.194Z,87.10
2019-03-10T11:30:36.011Z,91.70
2019-03-10T11:33:19.876Z,91.70
2019-03-10T11:36:11.078Z,89.30
2019-03-10T11:38:49.384Z,91.80
2019-03-10T11:41:33.427Z,91.90
2019-03-10T11:44:01.141Z,91.90
2019-03-10T11:46:43.942Z,91.70
2019-03-10T11:49:19.299Z,92.00
2019-03-10T11:51:57.864Z,91.40
2019-03-10T11:54:42.119Z,92.30
2019-03-10T11:57:29.119Z,92.40
2019-03-10T12:00:09.839Z,92.70
2019-03-10T12:02:48.917Z,92.90
2019-03-10T12:05:30.110Z,92.80
2019-03-10T12:08:17.172Z,91.30
2019-03-10T12:10:50.873Z,92.00
2019-03-10T12:13:27.150Z,92.80
2019-03-10T12:16:00.879Z,92.90
2019-03-10T12:18:34.686Z,92.90
2019-03-10T12:21:08.531Z,93.00
2019-03-10T12:23:43.708Z,93.10
2019-03-10T12:26:18.109Z,93.00
2019-03-10T12:28:52.002Z,93.20
2019-03-10T12:31:25.902Z,93.20
2019-03-10T12:33:59.770Z,93.20
2019-03-10T12:36:36.608Z,93.20
2019-03-10T12:39:10.783Z,93.20
2019-03-10T12:41:44.780Z,93.30
2019-03-10T12:44:18.677Z,93.30
2019-03-10T12:46:54.304Z,93.40
2019-03-10T12:49:29.345Z,93.40
2019-03-10T12:52:03.196Z,93.50
2019-03-10T12:54:36.621Z,93.40
2019-03-10T12:57:10.456Z,93.40
2019-03-10T12:59:44.226Z,93.40
2019-03-10T13:02:20.047Z,93.40
2019-03-10T13:04:54.153Z,93.40
2019-03-10T13:07:27.866Z,93.40
2019-03-10T13:10:01.280Z,93.40
2019-03-10T13:12:48.107Z,92.90
2019-03-10T13:15:22.006Z,93.30
2019-03-10T13:17:55.861Z,93.40
2019-03-10T13:20:29.820Z,93.40
2019-03-10T13:23:04.026Z,93.40
2019-03-10T13:25:37.347Z,93.40
2019-03-10T13:28:11.146Z,93.40
2019-03-10T13:30:45.071Z,93.40
2019-03-10T13:33:18.906Z,93.50
2019-03-10T13:35:53.402Z,93.80
2019-03-10T13:38:27.653Z,93.40
2019-03-10T13:41:02.555Z,93.40
2019-03-10T13:43:37.183Z,93.40
2019-03-10T13:46:10.857Z,93.40
2019-03-10T13:48:44.823Z,93.30
2019-03-10T13:51:18.064Z,93.30
2019-03-10T13:53:51.639Z,93.30
2019-03-10T13:56:27.264Z,93.30
2019-03-10T13:59:00.639Z,93.30
2019-03-10T14:01:34.387Z,93.30
2019-03-10T14:04:08.638Z,92.80
2019-03-10T14:06:41.882Z,93.00
2019-03-10T14:09:15.377Z,92.20
2019-03-10T14:11:50.631Z,93.20
2019-03-10T14:14:25.152Z,93.30
2019-03-10T14:16:58.436Z,93.20
2019-03-10T14:19:32.096Z,93.30
2019-03-10T14:22:05.816Z,93.30
2019-03-10T14:24:40.009Z,93.20
2019-03-10T14:27:13.582Z,92.80
2019-03-10T14:29:47.843Z,91.50
2019-03-10T14:32:21.783Z,93.20
2019-03-10T14:34:56.606Z,93.30
2019-03-10T14:37:31.534Z,93.30
2019-03-10T14:40:05.635Z,93.30
2019-03-10T14:42:38.989Z,93.50
2019-03-10T14:45:19.209Z,93.80
2019-03-10T14:47:52.728Z,94.00
2019-03-10T14:50:26.612Z,94.30
2019-03-10T14:53:00.111Z,94.30
2019-03-10T14:55:34.654Z,94.40
2019-03-10T14:58:08.688Z,94.30
2019-03-10T15:00:42.787Z,94.40
2019-03-10T15:03:16.235Z,94.40
2019-03-10T15:05:50.371Z,94.50
2019-03-10T15:08:25.429Z,94.40
2019-03-10T15:11:00.483Z,94.40
2019-03-10T15:13:35.141Z,94.40
2019-03-10T15:16:09.245Z,94.30
2019-03-10T15:18:42.917Z,94.30
2019-03-10T15:21:19.304Z,94.40
2019-03-10T15:23:51.104Z,94.40
2019-03-10T15:26:24.869Z,94.40
2019-03-10T15:28:59.084Z,94.50
2019-03-10T15:31:32.786Z,94.40
2019-03-10T15:34:06.511Z,94.40
2019-03-10T15:36:42.450Z,94.40
2019-03-10T15:39:17.658Z,94.50
2019-03-10T15:41:52.108Z,94.80
2019-03-10T15:44:25.938Z,95.00
2019-03-10T15:46:59.968Z,94.90
2019-03-10T15:49:34.716Z,94.90
2019-03-10T15:52:09.088Z,95.30
2019-03-10T15:54:42.388Z,95.30
2019-03-10T15:57:16.044Z,95.30
2019-03-10T15:59:49.519Z,95.20
2019-03-10T16:02:23.746Z,95.10
2019-03-10T16:04:57.435Z,95.00
2019-03-10T16:07:30.987Z,95.10
2019-03-10T16:10:08.223Z,95.10
2019-03-10T16:12:42.766Z,95.30
2019-03-10T16:15:20.565Z,95.50
2019-03-10T16:17:54.527Z,95.40
2019-03-10T16:20:28.143Z,95.50
2019-03-10T16:23:02.305Z,95.50
2019-03-10T16:25:35.729Z,95.50
2019-03-10T16:28:09.586Z,95.60
2019-03-10T16:30:42.974Z,95.50
2019-03-10T16:33:16.695Z,95.60
2019-03-10T16:35:50.421Z,95.60
2019-03-10T16:38:24.055Z,95.60
2019-03-10T16:40:57.947Z,95.60
2019-03-10T16:43:32.046Z,95.60
2019-03-10T16:46:05.753Z,95.60
2019-03-10T16:48:39.705Z,95.60
2019-03-10T16:51:13.275Z,96.00
2019-03-10T16:53:47.115Z,95.70
2019-03-10T16:56:21.491Z,95.70
2019-03-10T16:58:56.584Z,95.70
2019-03-10T17:01:29.800Z,95.70
2019-03-10T17:04:03.415Z,95.50
2019-03-10T17:06:38.026Z,95.80
2019-03-10T17:09:18.995Z,95.90
2019-03-10T17:11:52.597Z,95.90
2019-03-10T17:14:28.405Z,95.90
2019-03-10T17:17:01.615Z,95.90
2019-03-10T17:19:35.005Z,95.90
2019-03-10T17:22:08.347Z,95.90
2019-03-10T17:24:42.215Z,95.90
2019-03-10T17:27:15.602Z,95.90
2019-03-10T17:29:49.323Z,95.90
2019-03-10T17:32:22.553Z,95.80
2019-03-10T17:34:56.287Z,95.80
2019-03-10T17:37:30.106Z,95.70
2019-03-10T17:40:03.925Z,95.70
2019-03-10T17:42:37.615Z,95.80
2019-03-10T17:45:14.148Z,95.80
2019-03-10T17:47:47.699Z,95.80
2019-03-10T17:50:21.377Z,95.70
2019-03-10T17:52:55.285Z,95.70
2019-03-10T17:55:29.171Z,95.70
2019-03-10T17:58:03.023Z,95.70
2019-03-10T18:00:39.160Z,95.70
2019-03-10T18:03:12.584Z,95.70
2019-03-10T18:05:46.551Z,95.50
2019-03-10T18:08:20.118Z,95.50
2019-03-10T18:10:53.581Z,95.50
2019-03-10T18:13:27.605Z,95.40
2019-03-10T18:16:01.035Z,95.50
2019-03-10T18:18:34.792Z,95.50
2019-03-10T18:21:10.482Z,95.50
2019-03-10T18:23:45.788Z,95.60
2019-03-10T18:26:19.224Z,95.60
2019-03-10T18:28:52.579Z,95.60
2019-03-10T18:31:26.132Z,95.70
2019-03-10T18:33:59.432Z,95.60
2019-03-10T18:36:33.133Z,95.60
2019-03-10T18:39:07.512Z,95.60
2019-03-10T18:41:41.526Z,95.50
2019-03-10T18:44:14.856Z,95.60
2019-03-10T18:46:48.207Z,95.70
2019-03-10T18:49:22.900Z,95.60
2019-03-10T18:51:56.599Z,95.60
2019-03-10T18:54:31.089Z,95.60
2019-03-10T18:57:04.664Z,95.60
2019-03-10T18:59:38.577Z,95.70
2019-03-10T19:02:12.199Z,95.80
2019-03-10T19:04:45.879Z,95.70
2019-03-10T19:07:19.235Z,95.70
2019-03-10T19:09:52.427Z,95.70
2019-03-10T19:12:25.819Z,95.60
2019-03-10T19:14:59.145Z,95.50
2019-03-10T19:17:32.651Z,95.60
2019-03-10T19:20:06.480Z,95.70
2019-03-10T19:22:40.243Z,95.70
2019-03-10T19:25:14.625Z,95.80
2019-03-10T19:27:48.333Z,95.70
2019-03-10T19:30:22.549Z,95.80
2019-03-10T19:32:56.852Z,95.70
2019-03-10T19:35:30.354Z,95.80
2019-03-10T19:38:04.693Z,95.90
2019-03-10T19:40:38.368Z,95.90
2019-03-10T19:43:11.848Z,96.00
2019-03-10T19:45:45.191Z,96.00
2019-03-10T19:48:18.908Z,96.00
2019-03-10T19:50:52.156Z,96.00
2019-03-10T19:53:25.886Z,96.00
2019-03-10T19:55:59.205Z,96.20
2019-03-10T19:58:32.943Z,96.20
2019-03-10T20:01:06.572Z,96.20
2019-03-10T20:03:40.307Z,96.30
2019-03-10T20:06:13.639Z,96.20
2019-03-10T20:08:47.120Z,96.30
2019-03-10T20:11:20.803Z,96.30
2019-03-10T20:13:54.547Z,96.40
2019-03-10T20:16:28.171Z,96.20
2019-03-10T20:19:01.993Z,96.30
2019-03-10T20:21:38.291Z,96.10
2019-03-10T20:24:12.267Z,96.10
2019-03-10T20:26:45.904Z,96.10
2019-03-10T20:29:19.386Z,96.20
2019-03-10T20:31:53.090Z,96.00
2019-03-10T20:34:26.468Z,96.20
2019-03-10T20:37:01.190Z,96.10
2019-03-10T20:39:36.395Z,96.10
2019-03-10T20:42:11.997Z,96.20
2019-03-10T20:44:45.296Z,96.20
2019-03-10T20:47:18.779Z,96.20
2019-03-10T20:49:52.500Z,96.60
2019-03-10T20:52:25.822Z,96.10
2019-03-10T20:54:59.536Z,96.10
2019-03-10T20:57:33.379Z,96.00
2019-03-10T21:00:07.997Z,96.00
2019-03-10T21:02:41.707Z,96.00
2019-03-10T21:05:15.542Z,96.00
2019-03-10T21:07:48.971Z,96.10
2019-03-10T21:10:23.019Z,96.10
2019-03-10T21:12:56.314Z,96.10
2019-03-10T21:15:29.959Z,96.20
2019-03-10T21:18:03.285Z,96.20
2019-03-10T21:20:36.719Z,96.40
2019-03-10T21:23:09.957Z,96.20
2019-03-10T21:25:43.778Z,96.20
2019-03-10T21:28:18.299Z,96.10
2019-03-10T21:30:52.004Z,96.20
2019-03-10T21:33:25.647Z,96.30
2019-03-10T21:36:00.480Z,96.30
2019-03-10T21:38:33.810Z,96.20
2019-03-10T21:41:14.007Z,96.20
2019-03-10T21:43:42.430Z,96.30
2019-03-10T21:46:16.243Z,96.30
2019-03-10T21:48:50.100Z,96.30
2019-03-10T21:51:23.512Z,96.40
2019-03-10T21:53:57.111Z,96.30
2019-03-10T21:56:31.286Z,96.30
2019-03-10T21:59:04.842Z,96.50
2019-03-10T22:01:38.607Z,96.40
2019-03-10T22:04:12.987Z,96.30
2019-03-10T22:06:46.432Z,96.40
2019-03-10T22:09:19.639Z,96.50
2019-03-10T22:11:53.489Z,96.50
2019-03-10T22:14:28.748Z,96.40
2019-03-10T22:17:02.712Z,96.40
2019-03-10T22:19:36.164Z,96.40
2019-03-10T22:22:09.861Z,96.50
2019-03-10T22:24:43.251Z,96.50
2019-03-10T22:27:16.971Z,96.40
2019-03-10T22:29:50.183Z,96.30
2019-03-10T22:32:23.782Z,96.40
2019-03-10T22:34:57.027Z,96.60
2019-03-10T22:37:30.746Z,96.40
2019-03-10T22:40:04.490Z,96.50
2019-03-10T22:42:39.851Z,96.40
2019-03-10T22:45:15.896Z,96.50
2019-03-10T22:47:49.310Z,96.50
2019-03-10T22:50:23.142Z,96.60
2019-03-10T22:52:56.527Z,96.50
2019-03-10T22:55:30.192Z,96.60
2019-03-10T22:58:03.612Z,96.60
2019-03-10T23:00:40.976Z,96.50
2019-03-10T23:03:16.727Z,96.60
2019-03-10T23:05:51.398Z,96.60
2019-03-10T23:08:25.258Z,96.60
2019-03-10T23:10:58.633Z,96.70
2019-03-10T23:13:32.156Z,96.70
2019-03-10T23:16:05.473Z,96.70
2019-03-10T23:18:39.187Z,96.70
2019-03-10T23:21:12.593Z,96.60
2019-03-10T23:23:46.880Z,96.70
2019-03-10T23:26:20.430Z,96.70
2019-03-10T23:28:55.195Z,96.80
2019-03-10T23:31:28.491Z,96.70
2019-03-10T23:34:01.951Z,96.70
2019-03-10T23:36:35.543Z,97.00
2019-03-10T23:39:09.728Z,96.60
2019-03-10T23:41:44.826Z,96.70
2019-03-10T23:44:18.971Z,96.50
2019-03-10T23:46:52.939Z,96.60
2019-03-10T23:49:26.796Z,96.60
2019-03-10T23:52:00.652Z,96.70
2019-03-10T23:54:34.116Z,96.60
2019-03-10T23:57:07.791Z,96.60
2019-03-10T23:59:41.469Z,96.60
